Doddington, United Kingdom
Current Conditions -  °F | °C
As of 4:38 PM on Sunday 21 Dec 2014 (Local Time) from EGUN Reporting Station
Broken Clouds Broken Clouds  
Wind Chill: 50°   Ceiling: 2000
Heat Index: 50°   Visibility: 6mi
Dew Point: 45°   Wind: 20mph
Humidity: 82%   Direction: 230°SW
Pressure: 30.12"   Gusts: 31mph
Location:  52.5°N, 0.06°E
Report Text: EGUN 211638Z AUTO 23017G27KT 9999 BKN020 10/07 A3012 RMK AO2 BKN V FEW
Loading
Personal Weather Stations






























Interactive Weather Map New forecast layout! Learn more

10-Day Weather Forecast

Advertisements
Track Severe Weather on mobile